sensor_id;sensor_type;location;lat;lon;timestamp;temperature;humidity
11005;DHT22;5555;59.622;16.556;2022-11-13T00:01:40;3.60;99.90
11005;DHT22;5555;59.622;16.556;2022-11-13T00:04:06;3.60;99.90
11005;DHT22;5555;59.622;16.556;2022-11-13T00:06:31;3.50;99.90
11005;DHT22;5555;59.622;16.556;2022-11-13T00:08:57;3.40;99.90
11005;DHT22;5555;59.622;16.556;2022-11-13T00:11:23;3.40;99.90
11005;DHT22;5555;59.622;16.556;2022-11-13T00:13:48;3.50;99.90
11005;DHT22;5555;59.622;16.556;2022-11-13T00:16:19;3.40;99.90
11005;DHT22;5555;59.622;16.556;2022-11-13T00:18:45;3.30;99.90
11005;DHT22;5555;59.622;16.556;2022-11-13T00:21:17;3.20;99.90
11005;DHT22;5555;59.622;16.556;2022-11-13T00:23:43;3.30;99.90
11005;DHT22;5555;59.622;16.556;2022-11-13T00:26:17;3.40;99.90
11005;DHT22;5555;59.622;16.556;2022-11-13T00:28:44;3.30;99.90
11005;DHT22;5555;59.622;16.556;2022-11-13T00:31:12;3.40;99.90
11005;DHT22;5555;59.622;16.556;2022-11-13T00:33:38;3.40;99.90
11005;DHT22;5555;59.622;16.556;2022-11-13T00:36:09;3.40;99.90
11005;DHT22;5555;59.622;16.556;2022-11-13T00:38:38;3.30;99.90
11005;DHT22;5555;59.622;16.556;2022-11-13T00:41:03;3.30;99.90
11005;DHT22;5555;59.622;16.556;2022-11-13T00:43:29;3.30;99.90
11005;DHT22;5555;59.622;16.556;2022-11-13T00:45:54;3.20;99.90
11005;DHT22;5555;59.622;16.556;2022-11-13T00:48:20;3.30;99.90
11005;DHT22;5555;59.622;16.556;2022-11-13T00:50:46;3.30;99.90
11005;DHT22;5555;59.622;16.556;2022-11-13T00:53:12;3.20;99.90
11005;DHT22;5555;59.622;16.556;2022-11-13T00:55:38;3.10;99.90
11005;DHT22;5555;59.622;16.556;2022-11-13T00:58:04;3.10;99.90
11005;DHT22;5555;59.622;16.556;2022-11-13T01:00:30;3.00;99.90
11005;DHT22;5555;59.622;16.556;2022-11-13T01:02:59;3.00;99.90
11005;DHT22;5555;59.622;16.556;2022-11-13T01:05:26;3.00;99.90
11005;DHT22;5555;59.622;16.556;2022-11-13T01:07:51;3.00;99.90
11005;DHT22;5555;59.622;16.556;2022-11-13T01:10:17;2.90;99.90
11005;DHT22;5555;59.622;16.556;2022-11-13T01:12:43;3.00;99.90
11005;DHT22;5555;59.622;16.556;2022-11-13T01:15:09;3.00;99.90
11005;DHT22;5555;59.622;16.556;2022-11-13T01:17:35;3.20;99.90
11005;DHT22;5555;59.622;16.556;2022-11-13T01:20:00;3.20;99.90
11005;DHT22;5555;59.622;16.556;2022-11-13T01:22:26;3.30;99.90
11005;DHT22;5555;59.622;16.556;2022-11-13T01:24:52;3.40;99.90
11005;DHT22;5555;59.622;16.556;2022-11-13T01:27:18;3.40;99.90
11005;DHT22;5555;59.622;16.556;2022-11-13T01:29:43;3.50;99.90
11005;DHT22;5555;59.622;16.556;2022-11-13T01:32:09;3.50;99.90
11005;DHT22;5555;59.622;16.556;2022-11-13T01:34:35;3.40;99.90
11005;DHT22;5555;59.622;16.556;2022-11-13T01:37:00;3.30;99.90
11005;DHT22;5555;59.622;16.556;2022-11-13T01:39:26;3.10;99.90
11005;DHT22;5555;59.622;16.556;2022-11-13T01:41:52;3.20;99.90
11005;DHT22;5555;59.622;16.556;2022-11-13T01:44:18;3.20;99.90
11005;DHT22;5555;59.622;16.556;2022-11-13T01:46:55;3.10;99.90
11005;DHT22;5555;59.622;16.556;2022-11-13T01:49:34;3.00;99.90
11005;DHT22;5555;59.622;16.556;2022-11-13T01:52:03;3.00;99.90
11005;DHT22;5555;59.622;16.556;2022-11-13T01:54:37;3.00;99.90
11005;DHT22;5555;59.622;16.556;2022-11-13T01:57:03;3.00;99.90
11005;DHT22;5555;59.622;16.556;2022-11-13T01:59:31;3.00;99.90
11005;DHT22;5555;59.622;16.556;2022-11-13T02:01:59;3.00;99.90
11005;DHT22;5555;59.622;16.556;2022-11-13T02:04:25;3.00;99.90
11005;DHT22;5555;59.622;16.556;2022-11-13T02:07:13;2.90;99.90
11005;DHT22;5555;59.622;16.556;2022-11-13T02:09:42;2.80;99.90
11005;DHT22;5555;59.622;16.556;2022-11-13T02:12:12;2.80;99.90
11005;DHT22;5555;59.622;16.556;2022-11-13T02:14:45;2.90;99.90
11005;DHT22;5555;59.622;16.556;2022-11-13T02:17:18;2.90;99.90
11005;DHT22;5555;59.622;16.556;2022-11-13T02:19:49;2.90;99.90
11005;DHT22;5555;59.622;16.556;2022-11-13T02:22:25;2.90;99.90
11005;DHT22;5555;59.622;16.556;2022-11-13T02:24:54;2.80;99.90
11005;DHT22;5555;59.622;16.556;2022-11-13T02:27:28;2.70;99.90
11005;DHT22;5555;59.622;16.556;2022-11-13T02:29:54;2.60;99.90
11005;DHT22;5555;59.622;16.556;2022-11-13T02:32:20;2.70;99.90
11005;DHT22;5555;59.622;16.556;2022-11-13T02:34:46;2.70;99.90
11005;DHT22;5555;59.622;16.556;2022-11-13T02:37:11;2.70;99.90
11005;DHT22;5555;59.622;16.556;2022-11-13T02:39:37;2.60;99.90
11005;DHT22;5555;59.622;16.556;2022-11-13T02:42:03;2.50;99.90
11005;DHT22;5555;59.622;16.556;2022-11-13T02:44:28;2.50;99.90
11005;DHT22;5555;59.622;16.556;2022-11-13T02:46:54;2.40;99.90
11005;DHT22;5555;59.622;16.556;2022-11-13T02:49:20;2.40;99.90
11005;DHT22;5555;59.622;16.556;2022-11-13T02:51:45;2.40;99.90
11005;DHT22;5555;59.622;16.556;2022-11-13T02:54:11;2.30;99.90
11005;DHT22;5555;59.622;16.556;2022-11-13T02:56:36;2.40;99.90
11005;DHT22;5555;59.622;16.556;2022-11-13T02:59:02;2.40;99.90
11005;DHT22;5555;59.622;16.556;2022-11-13T03:01:28;2.50;99.90
11005;DHT22;5555;59.622;16.556;2022-11-13T03:03:53;2.40;99.90
11005;DHT22;5555;59.622;16.556;2022-11-13T03:06:19;2.30;99.90
11005;DHT22;5555;59.622;16.556;2022-11-13T03:08:45;2.30;99.90
11005;DHT22;5555;59.622;16.556;2022-11-13T03:11:11;2.40;99.90
11005;DHT22;5555;59.622;16.556;2022-11-13T03:13:37;2.30;99.90
11005;DHT22;5555;59.622;16.556;2022-11-13T03:16:07;2.30;99.90
11005;DHT22;5555;59.622;16.556;2022-11-13T03:18:33;2.30;99.90
11005;DHT22;5555;59.622;16.556;2022-11-13T03:21:05;2.40;99.90
11005;DHT22;5555;59.622;16.556;2022-11-13T03:23:31;2.30;99.90
11005;DHT22;5555;59.622;16.556;2022-11-13T03:26:04;2.40;99.90
11005;DHT22;5555;59.622;16.556;2022-11-13T03:28:30;2.40;99.90
11005;DHT22;5555;59.622;16.556;2022-11-13T03:30:56;2.20;99.90
11005;DHT22;5555;59.622;16.556;2022-11-13T03:33:22;2.40;99.90
11005;DHT22;5555;59.622;16.556;2022-11-13T03:35:48;2.40;99.90
11005;DHT22;5555;59.622;16.556;2022-11-13T03:38:13;2.30;99.90
11005;DHT22;5555;59.622;16.556;2022-11-13T03:40:39;2.40;99.90
11005;DHT22;5555;59.622;16.556;2022-11-13T03:43:06;2.40;99.90
11005;DHT22;5555;59.622;16.556;2022-11-13T03:45:31;2.30;99.90
11005;DHT22;5555;59.622;16.556;2022-11-13T03:47:57;2.30;99.90
11005;DHT22;5555;59.622;16.556;2022-11-13T03:50:22;2.30;99.90
11005;DHT22;5555;59.622;16.556;2022-11-13T03:52:48;2.30;99.90
11005;DHT22;5555;59.622;16.556;2022-11-13T03:55:14;2.30;99.90
11005;DHT22;5555;59.622;16.556;2022-11-13T03:57:39;2.20;99.90
11005;DHT22;5555;59.622;16.556;2022-11-13T04:00:06;2.30;99.90
11005;DHT22;5555;59.622;16.556;2022-11-13T04:02:31;2.20;99.90
11005;DHT22;5555;59.622;16.556;2022-11-13T04:04:57;2.20;99.90
11005;DHT22;5555;59.622;16.556;2022-11-13T04:07:22;2.20;99.90
11005;DHT22;5555;59.622;16.556;2022-11-13T04:09:48;2.20;99.90
11005;DHT22;5555;59.622;16.556;2022-11-13T04:12:14;2.20;99.90
11005;DHT22;5555;59.622;16.556;2022-11-13T04:14:39;2.20;99.90
11005;DHT22;5555;59.622;16.556;2022-11-13T04:17:05;2.20;99.90
11005;DHT22;5555;59.622;16.556;2022-11-13T04:19:30;2.20;99.90
11005;DHT22;5555;59.622;16.556;2022-11-13T04:21:56;2.20;99.90
11005;DHT22;5555;59.622;16.556;2022-11-13T04:24:22;2.20;99.90
11005;DHT22;5555;59.622;16.556;2022-11-13T04:26:47;2.10;99.90
11005;DHT22;5555;59.622;16.556;2022-11-13T04:29:13;2.00;99.90
11005;DHT22;5555;59.622;16.556;2022-11-13T04:31:38;2.10;99.90
11005;DHT22;5555;59.622;16.556;2022-11-13T04:34:04;2.30;99.90
11005;DHT22;5555;59.622;16.556;2022-11-13T04:36:29;2.40;99.90
11005;DHT22;5555;59.622;16.556;2022-11-13T04:38:55;2.50;99.90
11005;DHT22;5555;59.622;16.556;2022-11-13T04:41:21;2.60;99.90
11005;DHT22;5555;59.622;16.556;2022-11-13T04:44:05;2.60;99.90
11005;DHT22;5555;59.622;16.556;2022-11-13T04:46:30;2.60;99.90
11005;DHT22;5555;59.622;16.556;2022-11-13T04:48:56;2.60;99.90
11005;DHT22;5555;59.622;16.556;2022-11-13T04:51:22;2.60;99.90
11005;DHT22;5555;59.622;16.556;2022-11-13T04:53:47;2.60;99.90
11005;DHT22;5555;59.622;16.556;2022-11-13T04:56:13;2.60;99.90
11005;DHT22;5555;59.622;16.556;2022-11-13T04:58:39;2.60;99.90
11005;DHT22;5555;59.622;16.556;2022-11-13T05:01:04;2.60;99.90
11005;DHT22;5555;59.622;16.556;2022-11-13T05:03:30;2.60;99.90
11005;DHT22;5555;59.622;16.556;2022-11-13T05:06:06;2.50;99.90
11005;DHT22;5555;59.622;16.556;2022-11-13T05:08:33;2.50;99.90
11005;DHT22;5555;59.622;16.556;2022-11-13T05:10:59;2.50;99.90
11005;DHT22;5555;59.622;16.556;2022-11-13T05:13:25;2.50;99.90
11005;DHT22;5555;59.622;16.556;2022-11-13T05:15:59;2.50;99.90
11005;DHT22;5555;59.622;16.556;2022-11-13T05:18:25;2.50;99.90
11005;DHT22;5555;59.622;16.556;2022-11-13T05:20:51;2.40;99.90
11005;DHT22;5555;59.622;16.556;2022-11-13T05:23:16;2.40;99.90
11005;DHT22;5555;59.622;16.556;2022-11-13T05:25:42;2.30;99.90
11005;DHT22;5555;59.622;16.556;2022-11-13T05:28:08;2.30;99.90
11005;DHT22;5555;59.622;16.556;2022-11-13T05:30:33;2.30;99.90
11005;DHT22;5555;59.622;16.556;2022-11-13T05:32:59;2.30;99.90
11005;DHT22;5555;59.622;16.556;2022-11-13T05:35:25;2.30;99.90
11005;DHT22;5555;59.622;16.556;2022-11-13T05:37:50;2.30;99.90
11005;DHT22;5555;59.622;16.556;2022-11-13T05:40:16;2.20;99.90
11005;DHT22;5555;59.622;16.556;2022-11-13T05:42:41;2.20;99.90
11005;DHT22;5555;59.622;16.556;2022-11-13T05:45:07;2.10;99.90
11005;DHT22;5555;59.622;16.556;2022-11-13T05:47:33;2.00;99.90
11005;DHT22;5555;59.622;16.556;2022-11-13T05:49:59;2.00;99.90
11005;DHT22;5555;59.622;16.556;2022-11-13T05:52:24;2.00;99.90
11005;DHT22;5555;59.622;16.556;2022-11-13T05:54:50;2.00;99.90
11005;DHT22;5555;59.622;16.556;2022-11-13T05:57:16;2.00;99.90
11005;DHT22;5555;59.622;16.556;2022-11-13T05:59:41;2.00;99.90
11005;DHT22;5555;59.622;16.556;2022-11-13T06:02:07;2.00;99.90
11005;DHT22;5555;59.622;16.556;2022-11-13T06:04:32;2.00;99.90
11005;DHT22;5555;59.622;16.556;2022-11-13T06:06:58;1.90;99.90
11005;DHT22;5555;59.622;16.556;2022-11-13T06:09:24;1.90;99.90
11005;DHT22;5555;59.622;16.556;2022-11-13T06:11:49;1.90;99.90
11005;DHT22;5555;59.622;16.556;2022-11-13T06:14:15;1.90;99.90
11005;DHT22;5555;59.622;16.556;2022-11-13T06:16:41;1.90;99.90
11005;DHT22;5555;59.622;16.556;2022-11-13T06:19:08;1.90;99.90
11005;DHT22;5555;59.622;16.556;2022-11-13T06:21:37;1.90;99.90
11005;DHT22;5555;59.622;16.556;2022-11-13T06:24:04;1.80;99.90
11005;DHT22;5555;59.622;16.556;2022-11-13T06:26:32;1.70;99.90
11005;DHT22;5555;59.622;16.556;2022-11-13T06:29:00;1.70;99.90
11005;DHT22;5555;59.622;16.556;2022-11-13T06:31:29;1.70;99.90
11005;DHT22;5555;59.622;16.556;2022-11-13T06:33:56;1.60;99.90
11005;DHT22;5555;59.622;16.556;2022-11-13T06:36:25;1.60;99.90
11005;DHT22;5555;59.622;16.556;2022-11-13T06:38:51;1.60;99.90
11005;DHT22;5555;59.622;16.556;2022-11-13T06:41:19;1.70;99.90
11005;DHT22;5555;59.622;16.556;2022-11-13T06:43:46;1.70;99.90
11005;DHT22;5555;59.622;16.556;2022-11-13T06:46:17;1.60;99.90
11005;DHT22;5555;59.622;16.556;2022-11-13T06:48:43;1.50;99.90
11005;DHT22;5555;59.622;16.556;2022-11-13T06:51:13;1.50;99.90
11005;DHT22;5555;59.622;16.556;2022-11-13T06:53:40;1.50;99.90
11005;DHT22;5555;59.622;16.556;2022-11-13T06:56:06;1.60;99.90
11005;DHT22;5555;59.622;16.556;2022-11-13T06:58:32;1.50;99.90
11005;DHT22;5555;59.622;16.556;2022-11-13T07:01:06;1.40;99.90
11005;DHT22;5555;59.622;16.556;2022-11-13T07:03:33;1.40;99.90
11005;DHT22;5555;59.622;16.556;2022-11-13T07:06:01;1.40;99.90
11005;DHT22;5555;59.622;16.556;2022-11-13T07:08:28;1.50;99.90
11005;DHT22;5555;59.622;16.556;2022-11-13T07:10:55;1.60;99.90
11005;DHT22;5555;59.622;16.556;2022-11-13T07:13:21;1.60;99.90
11005;DHT22;5555;59.622;16.556;2022-11-13T07:15:47;1.50;99.90
11005;DHT22;5555;59.622;16.556;2022-11-13T07:18:13;1.50;99.90
11005;DHT22;5555;59.622;16.556;2022-11-13T07:20:39;1.50;99.90
11005;DHT22;5555;59.622;16.556;2022-11-13T07:23:05;1.50;99.90
11005;DHT22;5555;59.622;16.556;2022-11-13T07:25:31;1.60;99.90
11005;DHT22;5555;59.622;16.556;2022-11-13T07:27:57;1.70;99.90
11005;DHT22;5555;59.622;16.556;2022-11-13T07:30:23;1.70;99.90
11005;DHT22;5555;59.622;16.556;2022-11-13T07:32:49;1.80;99.90
11005;DHT22;5555;59.622;16.556;2022-11-13T07:35:15;1.80;99.90
11005;DHT22;5555;59.622;16.556;2022-11-13T07:37:44;1.90;99.90
11005;DHT22;5555;59.622;16.556;2022-11-13T07:40:10;2.00;99.90
11005;DHT22;5555;59.622;16.556;2022-11-13T07:42:36;2.00;99.90
11005;DHT22;5555;59.622;16.556;2022-11-13T07:45:03;2.10;99.90
11005;DHT22;5555;59.622;16.556;2022-11-13T07:47:29;2.10;99.90
11005;DHT22;5555;59.622;16.556;2022-11-13T07:49:55;2.20;99.90
11005;DHT22;5555;59.622;16.556;2022-11-13T07:52:21;2.40;99.90
11005;DHT22;5555;59.622;16.556;2022-11-13T07:54:46;2.50;99.90
11005;DHT22;5555;59.622;16.556;2022-11-13T07:57:12;2.50;99.90
11005;DHT22;5555;59.622;16.556;2022-11-13T07:59:38;2.60;99.90
11005;DHT22;5555;59.622;16.556;2022-11-13T08:02:04;2.60;99.90
11005;DHT22;5555;59.622;16.556;2022-11-13T08:04:30;2.70;99.90
11005;DHT22;5555;59.622;16.556;2022-11-13T08:06:56;2.80;99.90
11005;DHT22;5555;59.622;16.556;2022-11-13T08:09:22;2.90;99.90
11005;DHT22;5555;59.622;16.556;2022-11-13T08:11:47;2.90;99.90
11005;DHT22;5555;59.622;16.556;2022-11-13T08:14:13;2.80;99.90
11005;DHT22;5555;59.622;16.556;2022-11-13T08:16:39;2.90;99.90
11005;DHT22;5555;59.622;16.556;2022-11-13T08:19:04;2.90;99.90
11005;DHT22;5555;59.622;16.556;2022-11-13T08:21:30;3.10;99.90
11005;DHT22;5555;59.622;16.556;2022-11-13T08:23:55;3.10;99.90
11005;DHT22;5555;59.622;16.556;2022-11-13T08:26:22;3.20;99.90
11005;DHT22;5555;59.622;16.556;2022-11-13T08:28:48;3.20;99.90
11005;DHT22;5555;59.622;16.556;2022-11-13T08:31:14;3.20;99.90
11005;DHT22;5555;59.622;16.556;2022-11-13T08:33:41;3.20;99.90
11005;DHT22;5555;59.622;16.556;2022-11-13T08:36:08;3.30;99.90
11005;DHT22;5555;59.622;16.556;2022-11-13T08:38:34;3.50;99.90
11005;DHT22;5555;59.622;16.556;2022-11-13T08:41:01;3.60;99.90
11005;DHT22;5555;59.622;16.556;2022-11-13T08:43:28;3.60;99.90
11005;DHT22;5555;59.622;16.556;2022-11-13T08:45:53;3.60;99.90
11005;DHT22;5555;59.622;16.556;2022-11-13T08:48:20;3.60;99.90
11005;DHT22;5555;59.622;16.556;2022-11-13T08:50:50;3.70;99.90
11005;DHT22;5555;59.622;16.556;2022-11-13T08:53:17;3.70;99.90
11005;DHT22;5555;59.622;16.556;2022-11-13T08:55:42;3.70;99.90
11005;DHT22;5555;59.622;16.556;2022-11-13T08:58:08;3.80;99.90
11005;DHT22;5555;59.622;16.556;2022-11-13T09:00:34;3.80;99.90
11005;DHT22;5555;59.622;16.556;2022-11-13T09:03:00;3.90;99.90
11005;DHT22;5555;59.622;16.556;2022-11-13T09:05:26;3.90;99.90
11005;DHT22;5555;59.622;16.556;2022-11-13T09:07:56;3.90;99.90
11005;DHT22;5555;59.622;16.556;2022-11-13T09:10:22;3.90;99.90
11005;DHT22;5555;59.622;16.556;2022-11-13T09:12:48;3.90;99.90
11005;DHT22;5555;59.622;16.556;2022-11-13T09:15:19;3.90;99.90
11005;DHT22;5555;59.622;16.556;2022-11-13T09:17:45;4.00;99.90
11005;DHT22;5555;59.622;16.556;2022-11-13T09:20:10;4.00;99.90
11005;DHT22;5555;59.622;16.556;2022-11-13T09:22:36;4.10;99.90
11005;DHT22;5555;59.622;16.556;2022-11-13T09:25:02;4.20;99.90
11005;DHT22;5555;59.622;16.556;2022-11-13T09:27:28;4.30;99.90
11005;DHT22;5555;59.622;16.556;2022-11-13T09:29:53;4.40;99.90
11005;DHT22;5555;59.622;16.556;2022-11-13T09:32:19;4.40;99.90
11005;DHT22;5555;59.622;16.556;2022-11-13T09:34:45;4.50;99.90
11005;DHT22;5555;59.622;16.556;2022-11-13T09:37:12;4.60;99.90
11005;DHT22;5555;59.622;16.556;2022-11-13T09:39:38;4.60;99.90
11005;DHT22;5555;59.622;16.556;2022-11-13T09:42:18;4.70;99.90
11005;DHT22;5555;59.622;16.556;2022-11-13T09:45:06;4.70;99.90
11005;DHT22;5555;59.622;16.556;2022-11-13T09:47:45;4.70;99.90
11005;DHT22;5555;59.622;16.556;2022-11-13T09:50:28;4.70;99.90
11005;DHT22;5555;59.622;16.556;2022-11-13T09:52:54;4.80;99.90
11005;DHT22;5555;59.622;16.556;2022-11-13T09:55:27;4.80;99.90
11005;DHT22;5555;59.622;16.556;2022-11-13T09:58:18;5.00;99.90
11005;DHT22;5555;59.622;16.556;2022-11-13T10:00:46;5.20;99.90
11005;DHT22;5555;59.622;16.556;2022-11-13T10:03:31;5.20;99.90
11005;DHT22;5555;59.622;16.556;2022-11-13T10:09:00;5.10;99.90
11005;DHT22;5555;59.622;16.556;2022-11-13T10:11:50;5.30;99.90
11005;DHT22;5555;59.622;16.556;2022-11-13T10:16:52;5.30;99.90
11005;DHT22;5555;59.622;16.556;2022-11-13T10:22:39;5.30;99.90
11005;DHT22;5555;59.622;16.556;2022-11-13T10:25:17;5.30;99.90
11005;DHT22;5555;59.622;16.556;2022-11-13T10:27:56;5.40;99.90
11005;DHT22;5555;59.622;16.556;2022-11-13T10:30:22;5.40;99.90
11005;DHT22;5555;59.622;16.556;2022-11-13T10:32:49;5.50;99.90
11005;DHT22;5555;59.622;16.556;2022-11-13T10:38:22;5.80;99.90
11005;DHT22;5555;59.622;16.556;2022-11-13T10:40:49;5.60;99.90
11005;DHT22;5555;59.622;16.556;2022-11-13T10:43:22;5.70;99.90
11005;DHT22;5555;59.622;16.556;2022-11-13T10:45:58;5.80;99.90
11005;DHT22;5555;59.622;16.556;2022-11-13T10:51:01;5.80;99.90
11005;DHT22;5555;59.622;16.556;2022-11-13T10:53:36;5.80;99.90
11005;DHT22;5555;59.622;16.556;2022-11-13T10:59:12;5.70;99.90
11005;DHT22;5555;59.622;16.556;2022-11-13T11:01:39;5.70;99.90
11005;DHT22;5555;59.622;16.556;2022-11-13T11:04:10;5.80;99.90
11005;DHT22;5555;59.622;16.556;2022-11-13T11:06:38;5.80;99.90
11005;DHT22;5555;59.622;16.556;2022-11-13T11:11:45;6.10;99.90
11005;DHT22;5555;59.622;16.556;2022-11-13T11:14:37;6.00;99.90
11005;DHT22;5555;59.622;16.556;2022-11-13T11:17:06;6.10;99.90
11005;DHT22;5555;59.622;16.556;2022-11-13T11:19:36;6.20;99.90
11005;DHT22;5555;59.622;16.556;2022-11-13T11:22:30;6.00;99.90
11005;DHT22;5555;59.622;16.556;2022-11-13T11:25:11;5.90;99.90
11005;DHT22;5555;59.622;16.556;2022-11-13T11:27:44;5.80;99.90
11005;DHT22;5555;59.622;16.556;2022-11-13T11:30:23;5.80;99.90
11005;DHT22;5555;59.622;16.556;2022-11-13T11:41:33;5.60;99.90
11005;DHT22;5555;59.622;16.556;2022-11-13T11:46:37;5.60;99.90
11005;DHT22;5555;59.622;16.556;2022-11-13T11:49:02;5.50;99.90
11005;DHT22;5555;59.622;16.556;2022-11-13T11:51:45;5.50;99.90
11005;DHT22;5555;59.622;16.556;2022-11-13T11:54:45;5.20;99.90
11005;DHT22;5555;59.622;16.556;2022-11-13T11:57:38;5.30;99.90
11005;DHT22;5555;59.622;16.556;2022-11-13T12:00:13;5.30;99.90
11005;DHT22;5555;59.622;16.556;2022-11-13T12:03:00;5.50;99.90
11005;DHT22;5555;59.622;16.556;2022-11-13T12:05:47;5.40;99.90
11005;DHT22;5555;59.622;16.556;2022-11-13T12:13:29;5.30;99.90
11005;DHT22;5555;59.622;16.556;2022-11-13T12:16:15;5.50;99.90
11005;DHT22;5555;59.622;16.556;2022-11-13T12:21:23;5.40;99.90
11005;DHT22;5555;59.622;16.556;2022-11-13T12:23:57;5.30;99.90
11005;DHT22;5555;59.622;16.556;2022-11-13T12:36:58;5.20;99.90
11005;DHT22;5555;59.622;16.556;2022-11-13T12:42:41;5.50;99.90
11005;DHT22;5555;59.622;16.556;2022-11-13T12:50:39;5.60;99.90
11005;DHT22;5555;59.622;16.556;2022-11-13T12:53:08;5.60;99.90
11005;DHT22;5555;59.622;16.556;2022-11-13T12:55:37;5.40;99.90
11005;DHT22;5555;59.622;16.556;2022-11-13T12:58:19;5.50;99.90
11005;DHT22;5555;59.622;16.556;2022-11-13T13:09:17;5.40;99.90
11005;DHT22;5555;59.622;16.556;2022-11-13T13:15:34;5.30;99.90
11005;DHT22;5555;59.622;16.556;2022-11-13T13:18:02;5.20;99.90
11005;DHT22;5555;59.622;16.556;2022-11-13T13:20:38;5.20;99.90
11005;DHT22;5555;59.622;16.556;2022-11-13T13:23:05;5.20;99.90
11005;DHT22;5555;59.622;16.556;2022-11-13T13:25:33;5.10;99.90
11005;DHT22;5555;59.622;16.556;2022-11-13T13:28:19;5.00;99.90
11005;DHT22;5555;59.622;16.556;2022-11-13T13:39:14;5.10;99.90
11005;DHT22;5555;59.622;16.556;2022-11-13T13:45:26;5.20;99.90
11005;DHT22;5555;59.622;16.556;2022-11-13T13:47:51;5.20;99.90
11005;DHT22;5555;59.622;16.556;2022-11-13T13:50:24;5.00;99.90
11005;DHT22;5555;59.622;16.556;2022-11-13T13:52:50;5.00;99.90
11005;DHT22;5555;59.622;16.556;2022-11-13T13:55:37;5.00;99.90
11005;DHT22;5555;59.622;16.556;2022-11-13T13:58:08;4.80;99.90
11005;DHT22;5555;59.622;16.556;2022-11-13T14:00:36;4.90;99.90
11005;DHT22;5555;59.622;16.556;2022-11-13T14:03:02;4.90;99.90
11005;DHT22;5555;59.622;16.556;2022-11-13T14:05:31;4.90;99.90
11005;DHT22;5555;59.622;16.556;2022-11-13T14:07:58;5.00;99.90
11005;DHT22;5555;59.622;16.556;2022-11-13T14:10:26;5.00;99.90
11005;DHT22;5555;59.622;16.556;2022-11-13T14:12:53;4.90;99.90
11005;DHT22;5555;59.622;16.556;2022-11-13T14:17:47;4.80;99.90
11005;DHT22;5555;59.622;16.556;2022-11-13T14:20:14;4.80;99.90
11005;DHT22;5555;59.622;16.556;2022-11-13T14:22:41;4.80;99.90
11005;DHT22;5555;59.622;16.556;2022-11-13T14:25:21;4.70;99.90
11005;DHT22;5555;59.622;16.556;2022-11-13T14:27:48;4.70;99.90
11005;DHT22;5555;59.622;16.556;2022-11-13T14:30:40;4.70;99.90
11005;DHT22;5555;59.622;16.556;2022-11-13T14:33:12;4.80;99.90
11005;DHT22;5555;59.622;16.556;2022-11-13T14:35:40;4.70;99.90
11005;DHT22;5555;59.622;16.556;2022-11-13T14:38:20;4.70;99.90
11005;DHT22;5555;59.622;16.556;2022-11-13T14:40:47;4.70;99.90
11005;DHT22;5555;59.622;16.556;2022-11-13T14:43:30;4.80;99.90
11005;DHT22;5555;59.622;16.556;2022-11-13T14:48:26;4.70;99.90
11005;DHT22;5555;59.622;16.556;2022-11-13T14:50:59;4.70;99.90
11005;DHT22;5555;59.622;16.556;2022-11-13T14:53:36;4.70;99.90
11005;DHT22;5555;59.622;16.556;2022-11-13T14:56:07;4.70;99.90
11005;DHT22;5555;59.622;16.556;2022-11-13T14:58:36;4.70;99.90
11005;DHT22;5555;59.622;16.556;2022-11-13T15:01:17;4.70;99.90
11005;DHT22;5555;59.622;16.556;2022-11-13T15:03:47;4.60;99.90
11005;DHT22;5555;59.622;16.556;2022-11-13T15:06:23;4.50;99.90
11005;DHT22;5555;59.622;16.556;2022-11-13T15:08:53;4.50;99.90
11005;DHT22;5555;59.622;16.556;2022-11-13T15:11:21;4.40;99.90
11005;DHT22;5555;59.622;16.556;2022-11-13T15:13:47;4.40;99.90
11005;DHT22;5555;59.622;16.556;2022-11-13T15:16:24;4.40;99.90
11005;DHT22;5555;59.622;16.556;2022-11-13T15:21:54;4.50;99.90
11005;DHT22;5555;59.622;16.556;2022-11-13T15:24:20;4.50;99.90
11005;DHT22;5555;59.622;16.556;2022-11-13T15:26:46;4.50;99.90
11005;DHT22;5555;59.622;16.556;2022-11-13T15:29:12;4.60;99.90
11005;DHT22;5555;59.622;16.556;2022-11-13T15:31:42;4.50;99.90
11005;DHT22;5555;59.622;16.556;2022-11-13T15:34:13;4.50;99.90
11005;DHT22;5555;59.622;16.556;2022-11-13T15:36:39;4.50;99.90
11005;DHT22;5555;59.622;16.556;2022-11-13T15:39:06;4.50;99.90
11005;DHT22;5555;59.622;16.556;2022-11-13T15:41:33;4.50;99.90
11005;DHT22;5555;59.622;16.556;2022-11-13T15:44:00;4.50;99.90
11005;DHT22;5555;59.622;16.556;2022-11-13T15:46:26;4.50;99.90
11005;DHT22;5555;59.622;16.556;2022-11-13T15:48:52;4.50;99.90
11005;DHT22;5555;59.622;16.556;2022-11-13T15:51:30;4.60;99.90
11005;DHT22;5555;59.622;16.556;2022-11-13T15:54:01;4.60;99.90
11005;DHT22;5555;59.622;16.556;2022-11-13T15:56:29;4.50;99.90
11005;DHT22;5555;59.622;16.556;2022-11-13T15:58:55;4.50;99.90
11005;DHT22;5555;59.622;16.556;2022-11-13T16:01:21;4.40;99.90
11005;DHT22;5555;59.622;16.556;2022-11-13T16:03:47;4.30;99.90
11005;DHT22;5555;59.622;16.556;2022-11-13T16:06:16;4.30;99.90
11005;DHT22;5555;59.622;16.556;2022-11-13T16:08:42;4.30;99.90
11005;DHT22;5555;59.622;16.556;2022-11-13T16:11:18;4.30;99.90
11005;DHT22;5555;59.622;16.556;2022-11-13T16:13:44;4.30;99.90
11005;DHT22;5555;59.622;16.556;2022-11-13T16:16:20;4.40;99.90
11005;DHT22;5555;59.622;16.556;2022-11-13T16:18:48;4.40;99.90
11005;DHT22;5555;59.622;16.556;2022-11-13T16:21:15;4.50;99.90
11005;DHT22;5555;59.622;16.556;2022-11-13T16:23:42;4.50;99.90
11005;DHT22;5555;59.622;16.556;2022-11-13T16:26:25;4.50;99.90
11005;DHT22;5555;59.622;16.556;2022-11-13T16:28:53;4.50;99.90
11005;DHT22;5555;59.622;16.556;2022-11-13T16:31:20;4.50;99.90
11005;DHT22;5555;59.622;16.556;2022-11-13T16:33:46;4.60;99.90
11005;DHT22;5555;59.622;16.556;2022-11-13T16:36:19;4.60;99.90
11005;DHT22;5555;59.622;16.556;2022-11-13T16:38:46;4.50;99.90
11005;DHT22;5555;59.622;16.556;2022-11-13T16:41:13;4.50;99.90
11005;DHT22;5555;59.622;16.556;2022-11-13T16:43:43;4.50;99.90
11005;DHT22;5555;59.622;16.556;2022-11-13T16:46:19;4.50;99.90
11005;DHT22;5555;59.622;16.556;2022-11-13T16:48:48;4.60;99.90
11005;DHT22;5555;59.622;16.556;2022-11-13T16:51:14;4.60;99.90
11005;DHT22;5555;59.622;16.556;2022-11-13T16:53:41;4.50;99.90
11005;DHT22;5555;59.622;16.556;2022-11-13T16:56:19;4.50;99.90
11005;DHT22;5555;59.622;16.556;2022-11-13T16:58:46;4.50;99.90
11005;DHT22;5555;59.622;16.556;2022-11-13T17:01:17;4.60;99.90
11005;DHT22;5555;59.622;16.556;2022-11-13T17:03:43;4.60;99.90
11005;DHT22;5555;59.622;16.556;2022-11-13T17:06:28;4.60;99.90
11005;DHT22;5555;59.622;16.556;2022-11-13T17:08:56;4.70;99.90
11005;DHT22;5555;59.622;16.556;2022-11-13T17:11:23;4.70;99.90
11005;DHT22;5555;59.622;16.556;2022-11-13T17:13:51;4.70;99.90
11005;DHT22;5555;59.622;16.556;2022-11-13T17:16:17;4.70;99.90
11005;DHT22;5555;59.622;16.556;2022-11-13T17:18:43;4.70;99.90
11005;DHT22;5555;59.622;16.556;2022-11-13T17:21:09;4.70;99.90
11005;DHT22;5555;59.622;16.556;2022-11-13T17:23:36;4.70;99.90
11005;DHT22;5555;59.622;16.556;2022-11-13T17:26:03;4.70;99.90